createdAt,value
2019-02-15T00:01:27.589Z,99.90
2019-02-15T00:03:55.641Z,99.90
2019-02-15T00:06:23.746Z,99.90
2019-02-15T00:08:51.673Z,99.90
2019-02-15T00:11:19.817Z,99.90
2019-02-15T00:13:47.892Z,99.90
2019-02-15T00:16:15.838Z,99.90
2019-02-15T00:18:53.258Z,99.90
2019-02-15T00:21:24.084Z,99.90
2019-02-15T00:23:52.191Z,99.90
2019-02-15T00:26:21.045Z,99.90
2019-02-15T00:28:49.257Z,99.90
2019-02-15T00:31:19.661Z,99.90
2019-02-15T00:33:47.521Z,99.90
2019-02-15T00:36:15.443Z,99.90
2019-02-15T00:38:43.383Z,99.90
2019-02-15T00:41:11.417Z,99.90
2019-02-15T00:43:39.485Z,99.90
2019-02-15T00:46:35.634Z,99.90
2019-02-15T00:49:05.712Z,99.90
2019-02-15T00:52:02.414Z,99.90
2019-02-15T00:55:02.204Z,99.90
2019-02-15T00:57:48.190Z,99.90
2019-02-15T01:00:34.822Z,99.90
2019-02-15T01:03:23.332Z,99.90
2019-02-15T01:06:10.896Z,99.90
2019-02-15T01:08:55.039Z,99.90
2019-02-15T01:11:37.339Z,99.90
2019-02-15T01:14:05.430Z,99.90
2019-02-15T01:16:33.385Z,99.90
2019-02-15T01:19:01.535Z,99.90
2019-02-15T01:21:29.620Z,99.90
2019-02-15T01:23:57.833Z,99.90
2019-02-15T01:26:40.306Z,99.90
2019-02-15T01:29:28.121Z,99.90
2019-02-15T01:32:22.084Z,99.90
2019-02-15T01:34:58.719Z,99.90
2019-02-15T01:38:01.558Z,99.90
2019-02-15T01:40:39.599Z,99.90
2019-02-15T01:43:20.385Z,99.90
2019-02-15T01:46:06.412Z,99.90
2019-02-15T01:48:34.246Z,99.90
2019-02-15T01:51:02.293Z,99.90
2019-02-15T01:53:30.395Z,99.90
2019-02-15T01:55:58.842Z,99.90
2019-02-15T01:58:26.728Z,99.90
2019-02-15T02:00:54.685Z,99.90
2019-02-15T02:03:22.686Z,99.90
2019-02-15T02:05:50.627Z,99.90
2019-02-15T02:08:22.497Z,99.90
2019-02-15T02:10:50.636Z,99.90
2019-02-15T02:13:18.956Z,99.90
2019-02-15T02:15:47.012Z,99.90
2019-02-15T02:18:15.588Z,99.90
2019-02-15T02:20:44.577Z,99.90
2019-02-15T02:23:12.647Z,99.90
2019-02-15T02:25:40.786Z,99.90
2019-02-15T02:28:09.140Z,99.90
2019-02-15T02:30:37.022Z,99.90
2019-02-15T02:33:04.946Z,99.90
2019-02-15T02:35:33.113Z,99.90
2019-02-15T02:38:01.761Z,99.90
2019-02-15T02:40:29.717Z,99.90
2019-02-15T02:42:58.186Z,99.90
2019-02-15T02:45:26.312Z,99.90
2019-02-15T02:47:54.366Z,99.90
2019-02-15T02:50:22.460Z,99.90
2019-02-15T02:52:50.671Z,99.90
2019-02-15T02:55:18.625Z,99.90
2019-02-15T02:57:46.651Z,99.90
2019-02-15T03:00:14.675Z,99.90
2019-02-15T03:02:42.919Z,99.90
2019-02-15T03:05:11.511Z,99.90
2019-02-15T03:07:39.434Z,99.90
2019-02-15T03:10:07.544Z,99.90
2019-02-15T03:12:35.587Z,99.90
2019-02-15T03:15:03.842Z,99.90
2019-02-15T03:17:31.808Z,99.90
2019-02-15T03:20:00.188Z,99.90
2019-02-15T03:22:28.669Z,99.90
2019-02-15T03:24:56.715Z,99.90
2019-02-15T03:27:24.695Z,99.90
2019-02-15T03:29:52.627Z,99.90
2019-02-15T03:32:20.569Z,99.90
2019-02-15T03:34:48.719Z,99.90
2019-02-15T03:37:32.901Z,99.90
2019-02-15T03:40:12.838Z,99.90
2019-02-15T03:42:40.856Z,99.90
2019-02-15T03:45:08.805Z,99.90
2019-02-15T03:47:36.755Z,99.90
2019-02-15T03:50:05.307Z,99.90
2019-02-15T03:52:33.253Z,99.90
2019-02-15T03:55:01.588Z,99.90
2019-02-15T03:57:29.522Z,99.90
2019-02-15T03:59:57.862Z,99.90
2019-02-15T04:02:26.209Z,99.90
2019-02-15T04:04:54.209Z,99.90
2019-02-15T04:07:22.672Z,99.90
2019-02-15T04:09:50.552Z,99.90
2019-02-15T04:12:18.487Z,99.90
2019-02-15T04:14:46.321Z,99.90
2019-02-15T04:17:14.533Z,99.90
2019-02-15T04:19:43.081Z,99.90
2019-02-15T04:22:11.176Z,99.90
2019-02-15T04:24:39.246Z,99.90
2019-02-15T04:27:07.076Z,99.90
2019-02-15T04:29:35.062Z,99.90
2019-02-15T04:32:03.261Z,99.90
2019-02-15T04:34:31.235Z,99.90
2019-02-15T04:36:59.414Z,99.90
2019-02-15T04:39:27.452Z,99.90
2019-02-15T04:41:55.382Z,99.90
2019-02-15T04:44:23.776Z,99.90
2019-02-15T04:46:52.092Z,99.90
2019-02-15T04:49:20.085Z,99.90
2019-02-15T04:51:48.188Z,99.90
2019-02-15T04:54:16.196Z,99.90
2019-02-15T04:56:44.216Z,99.90
2019-02-15T04:59:12.203Z,99.90
2019-02-15T05:01:40.499Z,99.90
2019-02-15T05:04:08.409Z,99.90
2019-02-15T05:06:36.336Z,99.90
2019-02-15T05:09:05.205Z,99.90
2019-02-15T05:11:33.316Z,99.90
2019-02-15T05:14:01.376Z,99.90
2019-02-15T05:16:29.397Z,99.90
2019-02-15T05:18:57.453Z,99.90
2019-02-15T05:21:25.319Z,99.90
2019-02-15T05:23:53.345Z,99.90
2019-02-15T05:26:21.278Z,99.90
2019-02-15T05:28:49.483Z,99.90
2019-02-15T05:31:17.929Z,99.90
2019-02-15T05:33:46.191Z,99.90
2019-02-15T05:36:14.303Z,99.90
2019-02-15T05:38:42.346Z,99.90
2019-02-15T05:41:10.254Z,99.90
2019-02-15T05:43:40.606Z,99.90
2019-02-15T05:46:08.588Z,99.90
2019-02-15T05:48:36.470Z,99.90
2019-02-15T05:51:04.394Z,99.90
2019-02-15T05:53:32.295Z,99.90
2019-02-15T05:56:00.230Z,99.90
2019-02-15T05:58:28.783Z,99.90
2019-02-15T06:00:56.802Z,99.90
2019-02-15T06:03:25.145Z,99.90
2019-02-15T06:05:53.180Z,99.90
2019-02-15T06:08:21.419Z,99.90
2019-02-15T06:10:49.505Z,99.90
2019-02-15T06:13:17.876Z,99.90
2019-02-15T06:15:46.230Z,99.90
2019-02-15T06:18:14.598Z,99.90
2019-02-15T06:20:42.614Z,99.90
2019-02-15T06:23:10.608Z,99.90
2019-02-15T06:25:39.160Z,99.90
2019-02-15T06:28:07.613Z,99.90
2019-02-15T06:30:35.604Z,99.90
2019-02-15T06:33:03.556Z,99.90
2019-02-15T06:35:33.140Z,99.90
2019-02-15T06:38:01.972Z,99.90
2019-02-15T06:40:30.071Z,99.90
2019-02-15T06:43:00.507Z,99.90
2019-02-15T06:45:28.541Z,99.90
2019-02-15T06:47:56.691Z,99.90
2019-02-15T06:50:24.692Z,99.90
2019-02-15T06:52:52.698Z,99.90
2019-02-15T06:55:20.725Z,99.90
2019-02-15T06:57:49.765Z,99.90
2019-02-15T07:00:37.256Z,99.90
2019-02-15T07:03:37.184Z,99.90
2019-02-15T07:06:05.077Z,99.90
2019-02-15T07:08:33.108Z,99.90
2019-02-15T07:11:01.080Z,99.90
2019-02-15T07:13:29.292Z,99.90
2019-02-15T07:15:57.736Z,99.90
2019-02-15T07:18:25.754Z,99.90
2019-02-15T07:20:54.095Z,99.90
2019-02-15T07:23:22.062Z,99.90
2019-02-15T07:25:50.078Z,99.90
2019-02-15T07:28:18.201Z,99.90
2019-02-15T07:30:46.539Z,99.90
2019-02-15T07:33:14.452Z,99.90
2019-02-15T07:35:42.578Z,99.90
2019-02-15T07:38:10.539Z,99.90
2019-02-15T07:40:39.019Z,99.90
2019-02-15T07:43:07.096Z,99.90
2019-02-15T07:45:42.635Z,99.90
2019-02-15T07:48:04.941Z,99.90
2019-02-15T07:50:33.240Z,99.90
2019-02-15T07:53:01.869Z,99.90
2019-02-15T07:55:29.921Z,99.90
2019-02-15T07:57:57.865Z,99.90
2019-02-15T08:00:26.173Z,99.90
2019-02-15T08:02:54.112Z,99.90
2019-02-15T08:05:23.538Z,99.90
2019-02-15T08:07:51.843Z,99.90
2019-02-15T08:10:19.729Z,99.90
2019-02-15T08:12:47.621Z,99.90
2019-02-15T08:15:16.183Z,99.90
2019-02-15T08:17:44.731Z,99.90
2019-02-15T08:20:12.793Z,99.90
2019-02-15T08:22:41.236Z,99.90
2019-02-15T08:25:09.469Z,99.90
2019-02-15T08:27:37.581Z,99.90
2019-02-15T08:30:08.426Z,99.90
2019-02-15T08:32:36.569Z,99.90
2019-02-15T08:35:05.561Z,99.90
2019-02-15T08:37:33.700Z,99.90
2019-02-15T08:40:02.411Z,99.90
2019-02-15T08:42:30.752Z,99.90
2019-02-15T08:44:59.425Z,99.90
2019-02-15T08:47:27.986Z,99.90
2019-02-15T08:49:57.868Z,99.90
2019-02-15T08:52:26.213Z,99.90
2019-02-15T08:54:54.196Z,99.90
2019-02-15T08:57:22.184Z,99.90
2019-02-15T08:59:50.195Z,99.90
2019-02-15T09:02:21.539Z,99.90
2019-02-15T09:04:49.484Z,99.90
2019-02-15T09:07:17.672Z,99.90
2019-02-15T09:09:45.706Z,99.90
2019-02-15T09:12:13.610Z,99.90
2019-02-15T09:14:41.526Z,99.90
2019-02-15T09:17:09.771Z,99.90
2019-02-15T09:19:37.806Z,99.90
2019-02-15T09:22:06.062Z,99.90
2019-02-15T09:24:34.691Z,99.90
2019-02-15T09:27:13.357Z,99.90
2019-02-15T09:29:41.369Z,99.90
2019-02-15T09:32:09.383Z,99.90
2019-02-15T09:34:37.294Z,99.90
2019-02-15T09:37:05.316Z,99.90
2019-02-15T09:39:33.250Z,99.90
2019-02-15T09:42:01.433Z,99.90
2019-02-15T09:44:29.961Z,99.90
2019-02-15T09:46:58.006Z,99.90
2019-02-15T09:49:26.039Z,99.90
2019-02-15T09:51:55.565Z,99.90
2019-02-15T09:54:24.162Z,99.90
2019-02-15T09:56:52.124Z,99.90
2019-02-15T09:59:19.997Z,99.90
2019-02-15T10:01:47.947Z,99.90
2019-02-15T10:04:16.456Z,99.90
2019-02-15T10:06:44.969Z,99.90
2019-02-15T10:09:13.039Z,99.90
2019-02-15T10:11:41.274Z,99.90
2019-02-15T10:14:09.278Z,99.90
2019-02-15T10:16:37.396Z,99.90
2019-02-15T10:19:05.320Z,99.90
2019-02-15T10:21:33.317Z,99.90
2019-02-15T10:24:01.628Z,97.10
2019-02-15T10:26:29.622Z,96.60
2019-02-15T10:28:58.044Z,96.50
2019-02-15T10:31:27.371Z,93.60
2019-02-15T10:33:55.359Z,93.70
2019-02-15T10:36:23.520Z,92.90
2019-02-15T10:38:53.638Z,89.30
2019-02-15T10:41:21.710Z,90.10
2019-02-15T10:43:49.988Z,84.60
2019-02-15T10:46:17.867Z,82.20
2019-02-15T10:48:46.052Z,80.90
2019-02-15T10:51:14.017Z,78.70
2019-02-15T10:53:41.965Z,74.20
2019-02-15T10:56:10.946Z,72.20
2019-02-15T10:58:39.144Z,70.30
2019-02-15T11:01:07.293Z,69.40
2019-02-15T11:03:36.635Z,70.60
2019-02-15T11:06:05.513Z,70.40
2019-02-15T11:08:33.531Z,68.10
2019-02-15T11:11:01.621Z,67.50
2019-02-15T11:13:29.739Z,68.10
2019-02-15T11:15:57.770Z,67.20
2019-02-15T11:18:26.437Z,67.10
2019-02-15T11:20:54.316Z,65.70
2019-02-15T11:23:22.785Z,65.20
2019-02-15T11:25:50.791Z,63.80
2019-02-15T11:28:18.994Z,64.50
2019-02-15T11:30:46.853Z,63.30
2019-02-15T11:33:14.878Z,63.90
2019-02-15T11:35:42.834Z,62.60
2019-02-15T11:38:11.500Z,63.10
2019-02-15T11:40:39.613Z,62.60
2019-02-15T11:43:07.724Z,62.50
2019-02-15T11:45:35.690Z,63.20
2019-02-15T11:48:04.034Z,61.00
2019-02-15T11:50:32.384Z,61.40
2019-02-15T11:53:00.524Z,62.00
2019-02-15T11:55:28.907Z,61.30
2019-02-15T11:57:57.273Z,60.30
2019-02-15T12:00:31.518Z,61.40
2019-02-15T12:02:59.489Z,61.50
2019-02-15T12:05:27.523Z,61.50
2019-02-15T12:07:55.744Z,61.80
2019-02-15T12:10:23.651Z,62.10
2019-02-15T12:12:51.633Z,61.90
2019-02-15T12:15:19.807Z,61.10
2019-02-15T12:17:48.142Z,61.30
2019-02-15T12:20:16.253Z,61.30
2019-02-15T12:22:44.738Z,60.30
2019-02-15T12:25:12.888Z,57.50
2019-02-15T12:27:41.061Z,58.60
2019-02-15T12:30:10.348Z,60.10
2019-02-15T12:32:38.465Z,58.10
2019-02-15T12:35:07.224Z,55.00
2019-02-15T12:37:35.246Z,52.20
2019-02-15T12:40:03.692Z,53.40
2019-02-15T12:42:32.199Z,51.60
2019-02-15T12:45:00.310Z,52.20
2019-02-15T12:47:28.383Z,55.30
2019-02-15T12:49:56.272Z,53.50
2019-02-15T12:52:24.686Z,51.80
2019-02-15T12:54:53.021Z,49.70
2019-02-15T12:57:20.936Z,51.00
2019-02-15T12:59:48.938Z,48.10
2019-02-15T13:02:17.055Z,50.50
2019-02-15T13:04:45.348Z,49.20
2019-02-15T13:07:13.436Z,45.90
2019-02-15T13:09:41.803Z,47.30
2019-02-15T13:12:09.694Z,44.90
2019-02-15T13:14:37.634Z,42.70
2019-02-15T13:17:06.441Z,42.80
2019-02-15T13:19:34.476Z,44.10
2019-02-15T13:22:02.611Z,43.50
2019-02-15T13:24:30.598Z,44.00
2019-02-15T13:26:58.726Z,44.40
2019-02-15T13:29:26.694Z,45.50
2019-02-15T13:31:54.796Z,44.20
2019-02-15T13:34:22.703Z,44.30
2019-02-15T13:36:51.434Z,43.50
2019-02-15T13:39:19.843Z,43.00
2019-02-15T13:41:48.127Z,43.10
2019-02-15T13:44:17.960Z,42.80
2019-02-15T13:46:46.193Z,42.00
2019-02-15T13:49:14.272Z,41.30
2019-02-15T13:51:42.628Z,41.00
2019-02-15T13:54:10.874Z,40.20
2019-02-15T13:56:40.527Z,40.60
2019-02-15T13:59:09.132Z,38.80
2019-02-15T14:01:37.089Z,39.50
2019-02-15T14:04:05.630Z,38.40
2019-02-15T14:06:33.698Z,37.80
2019-02-15T14:09:01.668Z,36.70
2019-02-15T14:11:29.743Z,37.10
2019-02-15T14:13:57.746Z,35.90
2019-02-15T14:16:25.701Z,36.60
2019-02-15T14:18:53.919Z,36.90
2019-02-15T14:21:22.204Z,34.30
2019-02-15T14:23:50.391Z,32.50
2019-02-15T14:26:18.578Z,33.80
2019-02-15T14:28:47.094Z,29.40
2019-02-15T14:31:15.206Z,27.30
2019-02-15T14:33:43.204Z,27.50
2019-02-15T14:36:11.578Z,26.50
2019-02-15T14:38:39.603Z,26.80
2019-02-15T14:41:07.795Z,26.50
2019-02-15T14:43:36.399Z,26.30
2019-02-15T14:46:04.434Z,25.40
2019-02-15T14:48:32.878Z,26.20
2019-02-15T14:51:01.225Z,25.50
2019-02-15T14:53:29.244Z,25.10
2019-02-15T14:55:57.660Z,25.20
2019-02-15T14:58:25.855Z,25.00
2019-02-15T15:00:54.212Z,24.60
2019-02-15T15:03:22.555Z,25.60
2019-02-15T15:05:50.558Z,25.20
2019-02-15T15:08:18.605Z,25.40
2019-02-15T15:10:46.619Z,26.40
2019-02-15T15:13:14.860Z,25.70
2019-02-15T15:15:43.439Z,25.70
2019-02-15T15:18:13.410Z,25.60
2019-02-15T15:20:41.538Z,24.90
2019-02-15T15:23:15.809Z,26.00
2019-02-15T15:25:44.275Z,26.50
2019-02-15T15:28:12.398Z,25.70
2019-02-15T15:30:40.474Z,26.10
2019-02-15T15:33:08.440Z,26.40
2019-02-15T15:35:36.307Z,26.20
2019-02-15T15:38:04.761Z,25.60
2019-02-15T15:40:32.800Z,26.10
2019-02-15T15:43:00.856Z,26.10
2019-02-15T15:45:28.967Z,26.80
2019-02-15T15:47:57.167Z,26.60
2019-02-15T15:50:25.678Z,26.50
2019-02-15T15:52:53.754Z,27.30
2019-02-15T15:55:21.857Z,27.70
2019-02-15T15:57:50.198Z,27.30
2019-02-15T16:00:18.883Z,27.80
2019-02-15T16:02:47.163Z,27.80
2019-02-15T16:05:15.226Z,28.80
2019-02-15T16:07:46.384Z,27.30
2019-02-15T16:10:14.643Z,27.30
2019-02-15T16:12:42.771Z,27.50
2019-02-15T16:15:11.942Z,27.10
2019-02-15T16:17:40.785Z,27.10
2019-02-15T16:20:10.251Z,27.30
2019-02-15T16:22:38.512Z,28.00
2019-02-15T16:25:06.902Z,27.80
2019-02-15T16:27:35.230Z,28.00
2019-02-15T16:30:03.733Z,28.20
2019-02-15T16:32:31.831Z,29.80
2019-02-15T16:34:59.946Z,29.60
2019-02-15T16:37:27.884Z,32.20
2019-02-15T16:39:55.805Z,31.50
2019-02-15T16:42:23.763Z,32.60
2019-02-15T16:44:52.201Z,34.60
2019-02-15T16:47:20.303Z,34.10
2019-02-15T16:49:48.289Z,35.90
2019-02-15T16:52:16.386Z,36.90
2019-02-15T16:54:44.778Z,38.60
2019-02-15T16:57:12.769Z,40.60
2019-02-15T16:59:40.764Z,40.00
2019-02-15T17:02:08.792Z,42.80
2019-02-15T17:04:37.056Z,47.60
2019-02-15T17:07:05.045Z,48.50
2019-02-15T17:09:33.041Z,58.50
2019-02-15T17:12:01.473Z,60.30
2019-02-15T17:14:29.450Z,60.00
2019-02-15T17:16:57.282Z,62.00
2019-02-15T17:19:25.432Z,62.50
2019-02-15T17:21:53.438Z,61.70
2019-02-15T17:24:21.549Z,62.30
2019-02-15T17:26:51.013Z,66.30
2019-02-15T17:29:19.135Z,66.30
2019-02-15T17:31:47.355Z,67.90
2019-02-15T17:34:15.275Z,67.90
2019-02-15T17:36:43.343Z,70.20
2019-02-15T17:39:11.557Z,68.70
2019-02-15T17:41:39.461Z,71.60
2019-02-15T17:44:07.604Z,70.50
2019-02-15T17:46:35.630Z,76.80
2019-02-15T17:49:03.656Z,75.90
2019-02-15T17:51:31.808Z,78.60
2019-02-15T17:53:59.890Z,80.80
2019-02-15T17:56:27.895Z,80.90
2019-02-15T17:58:56.210Z,81.60
2019-02-15T18:01:24.177Z,84.30
2019-02-15T18:03:52.071Z,87.00
2019-02-15T18:06:20.266Z,86.10
2019-02-15T18:08:48.348Z,84.30
2019-02-15T18:11:16.299Z,83.00
2019-02-15T18:13:44.283Z,84.00
2019-02-15T18:16:12.592Z,83.60
2019-02-15T18:18:40.758Z,88.30
2019-02-15T18:21:09.208Z,88.00
2019-02-15T18:23:37.318Z,87.50
2019-02-15T18:26:05.256Z,89.80
2019-02-15T18:28:33.486Z,86.90
2019-02-15T18:31:01.552Z,90.60
2019-02-15T18:33:31.728Z,85.70
2019-02-15T18:36:00.228Z,83.50
2019-02-15T18:38:28.283Z,84.00
2019-02-15T18:40:56.596Z,83.20
2019-02-15T18:43:24.633Z,86.60
2019-02-15T18:45:52.504Z,85.10
2019-02-15T18:48:38.901Z,83.50
2019-02-15T18:51:06.927Z,83.50
2019-02-15T18:53:34.943Z,83.40
2019-02-15T18:56:02.951Z,82.70
2019-02-15T18:58:31.200Z,82.60
2019-02-15T19:00:59.123Z,85.20
2019-02-15T19:03:27.201Z,87.30
2019-02-15T19:05:55.321Z,86.50
2019-02-15T19:08:24.047Z,87.00
2019-02-15T19:10:52.153Z,87.80
2019-02-15T19:13:20.092Z,89.00
2019-02-15T19:15:48.105Z,90.70
2019-02-15T19:18:16.180Z,90.90
2019-02-15T19:20:44.408Z,91.60
2019-02-15T19:23:12.416Z,93.40
2019-02-15T19:25:40.439Z,94.40
2019-02-15T19:28:08.545Z,96.00
2019-02-15T19:30:36.927Z,96.70
2019-02-15T19:33:05.115Z,95.80
2019-02-15T19:35:33.205Z,97.30
2019-02-15T19:38:01.242Z,98.30
2019-02-15T19:40:29.178Z,99.60
2019-02-15T19:42:57.305Z,97.60
2019-02-15T19:45:25.418Z,97.20
2019-02-15T19:47:53.794Z,98.20
2019-02-15T19:50:22.189Z,98.00
2019-02-15T19:52:50.555Z,96.60
2019-02-15T19:55:18.582Z,96.20
2019-02-15T19:57:46.844Z,95.60
2019-02-15T20:00:16.614Z,94.80
2019-02-15T20:02:44.569Z,95.30
2019-02-15T20:05:12.851Z,95.10
2019-02-15T20:07:40.793Z,94.70
2019-02-15T20:10:12.408Z,95.00
2019-02-15T20:12:40.393Z,92.80
2019-02-15T20:15:10.409Z,92.10
2019-02-15T20:17:38.363Z,91.80
2019-02-15T20:20:09.413Z,93.20
2019-02-15T20:22:37.464Z,92.70
2019-02-15T20:25:06.611Z,93.00
2019-02-15T20:27:34.951Z,94.10
2019-02-15T20:30:03.577Z,93.70
2019-02-15T20:32:31.512Z,93.90
2019-02-15T20:34:59.564Z,92.70
2019-02-15T20:37:27.582Z,91.30
2019-02-15T20:39:55.885Z,90.20
2019-02-15T20:42:23.997Z,90.10
2019-02-15T20:44:52.042Z,87.80
2019-02-15T20:47:20.351Z,87.00
2019-02-15T20:49:57.519Z,85.90
2019-02-15T20:52:18.288Z,87.80
2019-02-15T20:54:47.069Z,83.00
2019-02-15T20:57:14.986Z,81.40
2019-02-15T20:59:43.479Z,80.00
2019-02-15T21:02:11.504Z,79.80
2019-02-15T21:04:39.424Z,79.40
2019-02-15T21:07:07.328Z,72.20
2019-02-15T21:09:35.340Z,71.00
2019-02-15T21:12:03.394Z,67.80
2019-02-15T21:14:31.434Z,67.10
2019-02-15T21:16:59.524Z,65.00
2019-02-15T21:19:27.571Z,65.30
2019-02-15T21:21:55.703Z,65.10
2019-02-15T21:24:24.248Z,64.80
2019-02-15T21:26:52.329Z,65.10
2019-02-15T21:29:20.598Z,65.60
2019-02-15T21:31:48.898Z,66.80
2019-02-15T21:34:17.219Z,66.80
2019-02-15T21:36:45.691Z,67.30
2019-02-15T21:39:13.708Z,67.50
2019-02-15T21:41:41.621Z,67.20
2019-02-15T21:44:09.729Z,68.50
2019-02-15T21:46:37.671Z,66.80
2019-02-15T21:49:05.651Z,66.30
2019-02-15T21:51:33.657Z,66.80
2019-02-15T21:54:01.705Z,66.30
2019-02-15T21:56:29.829Z,65.10
2019-02-15T21:58:57.859Z,64.50
2019-02-15T22:01:25.746Z,61.90
2019-02-15T22:03:53.695Z,65.00
2019-02-15T22:06:21.588Z,64.50
2019-02-15T22:08:50.078Z,64.30
2019-02-15T22:11:18.157Z,65.30
2019-02-15T22:13:46.115Z,65.00
2019-02-15T22:16:14.005Z,66.10
2019-02-15T22:18:42.091Z,63.50
2019-02-15T22:21:10.280Z,65.40
2019-02-15T22:23:38.410Z,65.70
2019-02-15T22:26:06.767Z,66.70
2019-02-15T22:28:34.865Z,66.10
2019-02-15T22:31:03.334Z,66.40
2019-02-15T22:33:32.254Z,66.50
2019-02-15T22:36:00.501Z,63.00
2019-02-15T22:38:28.743Z,62.60
2019-02-15T22:41:12.183Z,62.60
2019-02-15T22:43:41.624Z,63.10
2019-02-15T22:46:09.610Z,55.70
2019-02-15T22:48:37.663Z,61.10
2019-02-15T22:51:05.861Z,61.10
2019-02-15T22:53:33.800Z,52.50
2019-02-15T22:56:01.780Z,53.60
2019-02-15T22:58:30.040Z,52.50
2019-02-15T23:01:06.641Z,48.80
2019-02-15T23:03:35.764Z,44.40
2019-02-15T23:06:03.903Z,42.00
2019-02-15T23:08:32.317Z,41.20
2019-02-15T23:11:00.548Z,40.40
2019-02-15T23:13:28.610Z,40.50
2019-02-15T23:15:56.700Z,41.40
2019-02-15T23:18:24.791Z,40.70
2019-02-15T23:20:52.992Z,40.60
2019-02-15T23:23:21.205Z,42.90
2019-02-15T23:25:49.101Z,39.80
2019-02-15T23:28:17.489Z,33.90
2019-02-15T23:30:45.611Z,32.00
2019-02-15T23:33:13.906Z,30.30
2019-02-15T23:35:42.473Z,29.30
2019-02-15T23:38:10.543Z,28.90
2019-02-15T23:40:38.528Z,28.30
2019-02-15T23:43:06.525Z,28.10
2019-02-15T23:45:34.568Z,27.50
2019-02-15T23:48:02.841Z,27.60
2019-02-15T23:50:30.891Z,27.30
2019-02-15T23:52:58.921Z,27.20
2019-02-15T23:55:26.921Z,27.40
2019-02-15T23:57:55.047Z,27.90
